createdAt,value
2023-05-25T00:04:48.656Z,98106.06
2023-05-25T00:09:51.928Z,98113.63
2023-05-25T00:14:55.229Z,98124.31
2023-05-25T00:20:09.552Z,98134.16
2023-05-25T00:25:12.823Z,98121.16
2023-05-25T00:30:16.425Z,98116.41
2023-05-25T00:35:21.232Z,98117.25
2023-05-25T00:40:24.666Z,98118.91
2023-05-25T00:45:27.941Z,98120.16
2023-05-25T00:50:39.059Z,98125.38
2023-05-25T00:55:46.462Z,98133.31
2023-05-25T01:00:50.730Z,98127.75
2023-05-25T01:05:56.209Z,98123.69
2023-05-25T01:11:00.162Z,98132.56
2023-05-25T01:16:03.676Z,98131.00
2023-05-25T01:21:14.233Z,98136.25
2023-05-25T01:26:18.581Z,98132.50
2023-05-25T01:31:23.258Z,98135.06
2023-05-25T01:36:27.985Z,98130.03
2023-05-25T01:41:32.064Z,98134.66
2023-05-25T01:46:38.883Z,98142.75
2023-05-25T01:51:49.298Z,98136.66
2023-05-25T01:56:53.875Z,98133.13
2023-05-25T02:01:57.663Z,98133.63
2023-05-25T02:07:02.356Z,98136.59
2023-05-25T02:12:06.444Z,98135.88
2023-05-25T02:17:09.753Z,98139.53
2023-05-25T02:22:14.574Z,98135.13
2023-05-25T02:27:18.108Z,98129.59
2023-05-25T02:32:21.642Z,98127.53
2023-05-25T02:37:26.641Z,98137.44
2023-05-25T02:42:30.025Z,98132.25
2023-05-25T02:47:34.758Z,98127.88
2023-05-25T02:52:40.037Z,98118.53
2023-05-25T02:57:43.352Z,98122.88
2023-05-25T03:02:50.073Z,98124.50
2023-05-25T03:07:56.992Z,98132.06
2023-05-25T03:13:00.616Z,98135.19
2023-05-25T03:18:04.017Z,98135.91
2023-05-25T03:23:12.674Z,98148.81
2023-05-25T03:28:16.300Z,98150.34
2023-05-25T03:33:20.236Z,98152.53
2023-05-25T03:38:26.953Z,98151.31
2023-05-25T03:43:30.562Z,98155.09
2023-05-25T03:48:33.976Z,98153.22
2023-05-25T03:53:39.530Z,98157.13
2023-05-25T03:58:44.624Z,98166.59
2023-05-25T04:03:48.607Z,98155.00
2023-05-25T04:08:53.830Z,98149.34
2023-05-25T04:13:57.758Z,98160.53
2023-05-25T04:19:03.936Z,98163.22
2023-05-25T04:24:09.754Z,98165.94
2023-05-25T04:29:13.704Z,98176.00
2023-05-25T04:34:26.816Z,98180.00
2023-05-25T04:39:40.123Z,98186.84
2023-05-25T04:44:43.540Z,98199.88
2023-05-25T04:49:46.957Z,98193.13
2023-05-25T04:54:51.786Z,98186.09
2023-05-25T04:59:55.343Z,98191.31
2023-05-25T05:04:59.153Z,98191.59
2023-05-25T05:10:04.571Z,98189.91
2023-05-25T05:15:09.786Z,98187.00
2023-05-25T05:20:14.982Z,98182.41
2023-05-25T05:25:20.365Z,98187.09
2023-05-25T05:30:24.412Z,98180.09
2023-05-25T05:35:27.705Z,98186.53
2023-05-25T05:40:42.879Z,98191.03
2023-05-25T05:45:46.551Z,98197.66
2023-05-25T05:50:50.262Z,98199.34
2023-05-25T05:55:59.193Z,98209.66
2023-05-25T06:01:03.532Z,98209.22
2023-05-25T06:06:07.903Z,98221.22
2023-05-25T06:11:13.181Z,98223.16
2023-05-25T06:16:16.775Z,98226.50
2023-05-25T06:21:20.289Z,98226.28
2023-05-25T06:26:26.034Z,98226.81
2023-05-25T06:31:29.638Z,98242.69
2023-05-25T06:36:33.029Z,98232.84
2023-05-25T06:41:40.659Z,98229.75
2023-05-25T06:46:44.314Z,98235.69
2023-05-25T06:51:49.113Z,98235.19
2023-05-25T06:56:53.733Z,98230.31
2023-05-25T07:01:59.090Z,98231.41
2023-05-25T07:07:02.509Z,98233.94
2023-05-25T07:12:08.951Z,98243.53
2023-05-25T07:17:12.624Z,98231.91
2023-05-25T07:22:17.054Z,98236.03
2023-05-25T07:27:21.887Z,98236.00
2023-05-25T07:32:25.222Z,98235.75
2023-05-25T07:37:28.495Z,98234.19
2023-05-25T07:42:34.461Z,98247.13
2023-05-25T07:47:37.842Z,98237.34
2023-05-25T07:52:41.199Z,98244.91
2023-05-25T07:57:45.800Z,98235.63
2023-05-25T08:02:49.194Z,98249.06
2023-05-25T08:07:52.472Z,98246.38
2023-05-25T08:12:58.848Z,98252.09
2023-05-25T08:18:04.541Z,98251.00
2023-05-25T08:23:08.383Z,98248.09
2023-05-25T08:28:13.035Z,98251.81
2023-05-25T08:33:16.242Z,98244.84
2023-05-25T08:38:19.511Z,98249.34
2023-05-25T08:43:24.204Z,98258.19
2023-05-25T08:48:39.905Z,98261.47
2023-05-25T08:53:44.970Z,98260.69
2023-05-25T08:58:53.892Z,98258.16
2023-05-25T09:03:58.251Z,98258.63
2023-05-25T09:09:01.503Z,98273.50
2023-05-25T09:14:06.290Z,98271.34
2023-05-25T09:19:09.827Z,98288.06
2023-05-25T09:24:13.157Z,98279.56
2023-05-25T09:29:18.008Z,98282.06
2023-05-25T09:34:21.380Z,98284.06
2023-05-25T09:39:24.826Z,98281.34
2023-05-25T09:44:30.196Z,98277.91
2023-05-25T09:49:33.816Z,98286.50
2023-05-25T09:54:38.280Z,98280.56
2023-05-25T09:59:43.174Z,98280.50
2023-05-25T10:04:46.609Z,98286.88
2023-05-25T10:09:53.530Z,98278.59
2023-05-25T10:14:59.592Z,98284.22
2023-05-25T10:20:05.544Z,98285.97
2023-05-25T10:25:11.744Z,98278.00
2023-05-25T10:30:16.814Z,98277.69
2023-05-25T10:35:21.100Z,98269.75
2023-05-25T10:40:25.252Z,98269.16
2023-05-25T10:45:29.959Z,98266.94
2023-05-25T10:50:36.778Z,98268.38
2023-05-25T10:55:44.457Z,98266.34
2023-05-25T11:01:00.843Z,98254.13
2023-05-25T11:06:04.306Z,98254.44
2023-05-25T11:11:07.845Z,98262.31
2023-05-25T11:16:20.132Z,98253.53
2023-05-25T11:21:40.719Z,98252.69
2023-05-25T11:26:58.534Z,98240.06
2023-05-25T11:32:03.618Z,98239.38
2023-05-25T11:37:06.929Z,98236.09
2023-05-25T11:42:11.478Z,98219.41
2023-05-25T11:47:18.954Z,98236.19
2023-05-25T11:52:23.232Z,98231.34
2023-05-25T11:57:26.720Z,98220.94
2023-05-25T12:02:38.949Z,98219.53
2023-05-25T12:07:44.848Z,98218.09
2023-05-25T12:12:51.219Z,98215.25
2023-05-25T12:17:56.191Z,98205.44
2023-05-25T12:22:59.688Z,98209.31
2023-05-25T12:28:12.703Z,98198.16
2023-05-25T12:33:17.417Z,98196.84
2023-05-25T12:38:21.852Z,98199.16
2023-05-25T12:43:25.348Z,98196.91
2023-05-25T12:48:30.110Z,98192.81
2023-05-25T12:58:37.127Z,98189.34
2023-05-25T13:03:41.877Z,98185.25
2023-05-25T13:08:46.860Z,98183.16
2023-05-25T13:13:53.412Z,98174.50
2023-05-25T13:18:58.300Z,98176.63
2023-05-25T13:24:01.842Z,98171.75
2023-05-25T13:29:05.185Z,98162.06
2023-05-25T13:34:10.038Z,98167.56
2023-05-25T13:39:14.707Z,98175.75
2023-05-25T13:44:18.003Z,98167.53
2023-05-25T13:49:23.669Z,98168.75
2023-05-25T13:54:28.021Z,98156.88
2023-05-25T13:59:31.491Z,98161.66
2023-05-25T14:04:36.876Z,98156.94
2023-05-25T14:09:40.187Z,98154.50
2023-05-25T14:14:43.588Z,98154.00
2023-05-25T14:19:48.205Z,98147.91
2023-05-25T14:24:52.577Z,98151.56
2023-05-25T14:29:55.727Z,98142.31
2023-05-25T14:35:00.490Z,98140.84
2023-05-25T14:40:04.582Z,98148.28
2023-05-25T14:45:11.095Z,98154.19
2023-05-25T14:50:16.822Z,98144.56
2023-05-25T14:55:20.111Z,98141.41
2023-05-25T15:00:23.515Z,98146.34
2023-05-25T15:05:28.287Z,98138.84
2023-05-25T15:10:31.745Z,98135.13
2023-05-25T15:15:35.055Z,98137.84
2023-05-25T15:20:39.837Z,98129.44
2023-05-25T15:25:43.474Z,98131.00
2023-05-25T15:30:46.880Z,98135.63
2023-05-25T15:35:51.509Z,98129.09
2023-05-25T15:40:54.772Z,98130.78
2023-05-25T15:45:58.010Z,98132.66
2023-05-25T15:51:02.790Z,98130.66
2023-05-25T15:56:06.359Z,98143.34
2023-05-25T16:01:11.820Z,98130.28
2023-05-25T16:06:17.920Z,98116.03
2023-05-25T16:11:21.257Z,98139.44
2023-05-25T16:16:25.305Z,98124.69
2023-05-25T16:21:30.554Z,98121.00
2023-05-25T16:26:34.500Z,98122.28
2023-05-25T16:31:38.105Z,98120.06
2023-05-25T16:36:42.947Z,98119.38
2023-05-25T16:41:46.398Z,98115.75
2023-05-25T16:46:50.351Z,98113.41
2023-05-25T16:51:55.097Z,98115.00
2023-05-25T16:56:58.421Z,98115.88
2023-05-25T17:02:02.089Z,98117.47
2023-05-25T17:07:07.618Z,98115.31
2023-05-25T17:12:11.159Z,98115.88
2023-05-25T17:17:15.136Z,98123.56
2023-05-25T17:22:20.017Z,98113.97
2023-05-25T17:27:23.446Z,98117.63
2023-05-25T17:32:27.338Z,98114.78
2023-05-25T17:37:32.316Z,98117.47
2023-05-25T17:42:35.612Z,98123.09
2023-05-25T17:47:38.869Z,98129.31
2023-05-25T17:52:43.736Z,98126.19
2023-05-25T17:57:47.164Z,98127.59
2023-05-25T18:02:51.964Z,98125.13
2023-05-25T18:07:56.764Z,98132.72
2023-05-25T18:12:59.997Z,98132.03
2023-05-25T18:18:03.887Z,98134.13
2023-05-25T18:23:09.311Z,98137.19
2023-05-25T18:28:14.864Z,98143.53
2023-05-25T18:33:18.321Z,98147.88
2023-05-25T18:38:23.000Z,98152.34
2023-05-25T18:43:26.990Z,98152.53
2023-05-25T18:48:30.739Z,98160.78
2023-05-25T18:53:35.479Z,98154.09
2023-05-25T18:58:38.781Z,98155.78
2023-05-25T19:03:42.271Z,98157.50
2023-05-25T19:08:47.035Z,98174.00
2023-05-25T19:13:50.313Z,98174.47
2023-05-25T19:18:53.640Z,98181.38
2023-05-25T19:23:58.978Z,98183.25
2023-05-25T19:29:02.407Z,98179.59
2023-05-25T19:34:06.278Z,98194.66
2023-05-25T19:39:10.954Z,98195.56
2023-05-25T19:44:15.492Z,98204.09
2023-05-25T19:49:19.106Z,98211.59
2023-05-25T19:54:23.928Z,98215.91
2023-05-25T19:59:30.273Z,98213.47
2023-05-25T20:04:34.192Z,98225.31
2023-05-25T20:09:39.260Z,98234.50
2023-05-25T20:14:43.737Z,98245.22
2023-05-25T20:19:47.878Z,98244.13
2023-05-25T20:24:54.972Z,98250.16
2023-05-25T20:29:58.973Z,98255.81
2023-05-25T20:35:03.140Z,98261.34
2023-05-25T20:40:09.733Z,98263.59
2023-05-25T20:45:13.606Z,98262.03
2023-05-25T20:50:17.301Z,98263.50
2023-05-25T20:55:22.115Z,98273.66
2023-05-25T21:00:25.436Z,98279.13
2023-05-25T21:05:29.174Z,98286.13
2023-05-25T21:10:34.733Z,98282.41
2023-05-25T21:15:38.100Z,98292.00
2023-05-25T21:20:41.942Z,98296.53
2023-05-25T21:25:47.315Z,98292.97
2023-05-25T21:30:51.088Z,98303.63
2023-05-25T21:35:54.477Z,98305.81
2023-05-25T21:40:59.578Z,98306.22
2023-05-25T21:46:02.715Z,98308.56
2023-05-25T21:51:05.980Z,98308.78
2023-05-25T21:56:10.693Z,98308.47
2023-05-25T22:01:14.055Z,98313.00
2023-05-25T22:06:17.492Z,98323.97
2023-05-25T22:11:22.261Z,98320.66
2023-05-25T22:16:25.674Z,98322.28
2023-05-25T22:21:29.009Z,98326.69
2023-05-25T22:26:33.680Z,98318.03
2023-05-25T22:31:37.242Z,98316.53
2023-05-25T22:36:40.557Z,98321.50
2023-05-25T22:41:45.320Z,98319.75
2023-05-25T22:46:48.743Z,98317.81
2023-05-25T22:51:52.189Z,98324.00
2023-05-25T22:56:56.787Z,98320.81
2023-05-25T23:02:00.167Z,98328.41
2023-05-25T23:07:03.564Z,98324.81
2023-05-25T23:12:08.590Z,98331.09
2023-05-25T23:17:12.016Z,98322.84
2023-05-25T23:22:15.223Z,98323.56
2023-05-25T23:27:20.007Z,98327.72
2023-05-25T23:32:23.259Z,98326.13
2023-05-25T23:37:26.909Z,98327.53
2023-05-25T23:42:38.989Z,98316.59
2023-05-25T23:47:42.223Z,98322.22
2023-05-25T23:52:45.850Z,98317.19
2023-05-25T23:57:50.572Z,98314.47
